Fort Thomson, Canada
Current Conditions -  °F | °C
As of 6:00 PM on Friday 21 Nov 2014 (Local Time) from CYCO Reporting Station
Few Clouds Few Clouds  
Wind Chill: -33°   Ceiling: Unl
Heat Index: -11°   Visibility: 15mi
Dew Point: -17°   Wind: 14mph
Humidity: 77%   Direction: 250°WSW
Pressure: 29.84"   Gusts: NA
Location:  68.78°N, 114.78°W
Report Text: CYCO 220100Z 25012KT 15SM FEW010 M24/M27 A2984 RMK ST1 TR STAURBO SLP110
Loading
Personal Weather Stations






























Interactive Weather Map New forecast layout! Learn more

10-Day Weather Forecast

Advertisements
Track Severe Weather on mobile